sensor_id;sensor_type;location;lat;lon;timestamp;temperature;humidity
16578;DHT22;8401;52.528;13.340;2024-01-30T00:01:40;5.20;99.90
16578;DHT22;8401;52.528;13.340;2024-01-30T00:04:06;5.20;99.90
16578;DHT22;8401;52.528;13.340;2024-01-30T00:06:31;5.40;99.90
16578;DHT22;8401;52.528;13.340;2024-01-30T00:08:57;5.40;99.90
16578;DHT22;8401;52.528;13.340;2024-01-30T00:11:23;5.50;99.90
16578;DHT22;8401;52.528;13.340;2024-01-30T00:13:53;5.50;99.90
16578;DHT22;8401;52.528;13.340;2024-01-30T00:16:24;5.40;99.90
16578;DHT22;8401;52.528;13.340;2024-01-30T00:18:53;5.30;99.90
16578;DHT22;8401;52.528;13.340;2024-01-30T00:21:19;5.40;99.90
16578;DHT22;8401;52.528;13.340;2024-01-30T00:23:45;5.30;99.90
16578;DHT22;8401;52.528;13.340;2024-01-30T00:26:11;5.40;99.90
16578;DHT22;8401;52.528;13.340;2024-01-30T00:28:38;5.40;99.90
16578;DHT22;8401;52.528;13.340;2024-01-30T00:31:03;5.50;99.90
16578;DHT22;8401;52.528;13.340;2024-01-30T00:33:32;5.50;99.90
16578;DHT22;8401;52.528;13.340;2024-01-30T00:35:57;5.50;99.90
16578;DHT22;8401;52.528;13.340;2024-01-30T00:38:23;5.60;99.90
16578;DHT22;8401;52.528;13.340;2024-01-30T00:40:49;5.50;99.90
16578;DHT22;8401;52.528;13.340;2024-01-30T00:43:15;5.40;99.90
16578;DHT22;8401;52.528;13.340;2024-01-30T00:45:43;5.50;99.90
16578;DHT22;8401;52.528;13.340;2024-01-30T00:48:08;5.50;99.90
16578;DHT22;8401;52.528;13.340;2024-01-30T00:50:34;5.40;99.90
16578;DHT22;8401;52.528;13.340;2024-01-30T00:53:00;5.40;99.90
16578;DHT22;8401;52.528;13.340;2024-01-30T00:55:25;5.50;99.90
16578;DHT22;8401;52.528;13.340;2024-01-30T00:57:51;5.40;99.90
16578;DHT22;8401;52.528;13.340;2024-01-30T01:00:16;5.40;99.90
16578;DHT22;8401;52.528;13.340;2024-01-30T01:02:43;5.40;99.90
16578;DHT22;8401;52.528;13.340;2024-01-30T01:05:09;5.30;99.90
16578;DHT22;8401;52.528;13.340;2024-01-30T01:07:35;5.30;99.90
16578;DHT22;8401;52.528;13.340;2024-01-30T01:10:00;5.30;99.90
16578;DHT22;8401;52.528;13.340;2024-01-30T01:12:26;5.30;99.90
16578;DHT22;8401;52.528;13.340;2024-01-30T01:14:51;5.20;99.90
16578;DHT22;8401;52.528;13.340;2024-01-30T01:17:17;5.20;99.90
16578;DHT22;8401;52.528;13.340;2024-01-30T01:19:44;5.20;99.90
16578;DHT22;8401;52.528;13.340;2024-01-30T01:22:10;5.20;99.90
16578;DHT22;8401;52.528;13.340;2024-01-30T01:24:36;5.20;99.90
16578;DHT22;8401;52.528;13.340;2024-01-30T01:27:01;5.20;99.90
16578;DHT22;8401;52.528;13.340;2024-01-30T01:29:27;5.20;99.90
16578;DHT22;8401;52.528;13.340;2024-01-30T01:31:56;5.10;99.90
16578;DHT22;8401;52.528;13.340;2024-01-30T01:34:21;4.90;99.90
16578;DHT22;8401;52.528;13.340;2024-01-30T01:36:48;4.80;99.90
16578;DHT22;8401;52.528;13.340;2024-01-30T01:39:13;4.90;99.90
16578;DHT22;8401;52.528;13.340;2024-01-30T01:41:39;4.90;99.90
16578;DHT22;8401;52.528;13.340;2024-01-30T01:44:05;5.00;99.90
16578;DHT22;8401;52.528;13.340;2024-01-30T01:46:33;4.90;99.90
16578;DHT22;8401;52.528;13.340;2024-01-30T01:49:00;4.90;99.90
16578;DHT22;8401;52.528;13.340;2024-01-30T01:51:28;5.00;99.90
16578;DHT22;8401;52.528;13.340;2024-01-30T01:53:55;5.10;99.90
16578;DHT22;8401;52.528;13.340;2024-01-30T01:56:26;5.10;99.90
16578;DHT22;8401;52.528;13.340;2024-01-30T01:58:55;5.10;99.90
16578;DHT22;8401;52.528;13.340;2024-01-30T02:01:21;4.90;99.90
16578;DHT22;8401;52.528;13.340;2024-01-30T02:03:47;5.00;99.90
16578;DHT22;8401;52.528;13.340;2024-01-30T02:06:16;4.80;99.90
16578;DHT22;8401;52.528;13.340;2024-01-30T02:08:42;4.80;99.90
16578;DHT22;8401;52.528;13.340;2024-01-30T02:11:08;4.90;99.90
16578;DHT22;8401;52.528;13.340;2024-01-30T02:13:35;5.00;99.90
16578;DHT22;8401;52.528;13.340;2024-01-30T02:16:01;4.80;99.90
16578;DHT22;8401;52.528;13.340;2024-01-30T02:18:27;4.80;99.90
16578;DHT22;8401;52.528;13.340;2024-01-30T02:20:56;4.60;99.90
16578;DHT22;8401;52.528;13.340;2024-01-30T02:23:24;4.80;99.90
16578;DHT22;8401;52.528;13.340;2024-01-30T02:25:50;4.80;99.90
16578;DHT22;8401;52.528;13.340;2024-01-30T02:28:18;4.80;99.90
16578;DHT22;8401;52.528;13.340;2024-01-30T02:30:45;4.90;99.90
16578;DHT22;8401;52.528;13.340;2024-01-30T02:33:11;5.00;99.90
16578;DHT22;8401;52.528;13.340;2024-01-30T02:35:37;5.00;99.90
16578;DHT22;8401;52.528;13.340;2024-01-30T02:38:03;4.80;99.90
16578;DHT22;8401;52.528;13.340;2024-01-30T02:40:29;4.80;99.90
16578;DHT22;8401;52.528;13.340;2024-01-30T02:42:55;4.60;99.90
16578;DHT22;8401;52.528;13.340;2024-01-30T02:45:21;4.60;99.90
16578;DHT22;8401;52.528;13.340;2024-01-30T02:47:46;4.80;99.90
16578;DHT22;8401;52.528;13.340;2024-01-30T02:50:12;4.60;99.90
16578;DHT22;8401;52.528;13.340;2024-01-30T02:52:38;4.50;99.90
16578;DHT22;8401;52.528;13.340;2024-01-30T02:55:04;4.50;99.90
16578;DHT22;8401;52.528;13.340;2024-01-30T02:57:30;4.60;99.90
16578;DHT22;8401;52.528;13.340;2024-01-30T02:59:55;4.50;99.90
16578;DHT22;8401;52.528;13.340;2024-01-30T03:02:21;4.60;99.90
16578;DHT22;8401;52.528;13.340;2024-01-30T03:04:47;4.80;99.90
16578;DHT22;8401;52.528;13.340;2024-01-30T03:07:13;4.80;99.90
16578;DHT22;8401;52.528;13.340;2024-01-30T03:09:38;4.90;99.90
16578;DHT22;8401;52.528;13.340;2024-01-30T03:12:06;4.90;99.90
16578;DHT22;8401;52.528;13.340;2024-01-30T03:14:32;4.90;99.90
16578;DHT22;8401;52.528;13.340;2024-01-30T03:16:58;4.70;99.90
16578;DHT22;8401;52.528;13.340;2024-01-30T03:19:23;4.60;99.90
16578;DHT22;8401;52.528;13.340;2024-01-30T03:21:49;4.70;99.90
16578;DHT22;8401;52.528;13.340;2024-01-30T03:24:15;4.80;99.90
16578;DHT22;8401;52.528;13.340;2024-01-30T03:26:41;4.60;99.90
16578;DHT22;8401;52.528;13.340;2024-01-30T03:29:07;4.70;99.90
16578;DHT22;8401;52.528;13.340;2024-01-30T03:31:33;4.50;99.90
16578;DHT22;8401;52.528;13.340;2024-01-30T03:33:58;4.50;99.90
16578;DHT22;8401;52.528;13.340;2024-01-30T03:36:24;4.60;99.90
16578;DHT22;8401;52.528;13.340;2024-01-30T03:38:50;4.70;99.90
16578;DHT22;8401;52.528;13.340;2024-01-30T03:41:15;4.80;99.90
16578;DHT22;8401;52.528;13.340;2024-01-30T03:43:41;4.90;99.90
16578;DHT22;8401;52.528;13.340;2024-01-30T03:46:08;4.80;99.90
16578;DHT22;8401;52.528;13.340;2024-01-30T03:48:33;4.80;99.90
16578;DHT22;8401;52.528;13.340;2024-01-30T03:50:59;4.50;99.90
16578;DHT22;8401;52.528;13.340;2024-01-30T03:53:25;4.60;99.90
16578;DHT22;8401;52.528;13.340;2024-01-30T03:55:51;4.50;99.90
16578;DHT22;8401;52.528;13.340;2024-01-30T03:58:16;4.60;99.90
16578;DHT22;8401;52.528;13.340;2024-01-30T04:00:42;4.70;99.90
16578;DHT22;8401;52.528;13.340;2024-01-30T04:03:08;4.70;99.90
16578;DHT22;8401;52.528;13.340;2024-01-30T04:05:33;4.60;99.90
16578;DHT22;8401;52.528;13.340;2024-01-30T04:07:59;4.50;99.90
16578;DHT22;8401;52.528;13.340;2024-01-30T04:10:25;4.50;99.90
16578;DHT22;8401;52.528;13.340;2024-01-30T04:12:51;4.50;99.90
16578;DHT22;8401;52.528;13.340;2024-01-30T04:15:17;4.60;99.90
16578;DHT22;8401;52.528;13.340;2024-01-30T04:17:43;4.60;99.90
16578;DHT22;8401;52.528;13.340;2024-01-30T04:20:14;4.60;99.90
16578;DHT22;8401;52.528;13.340;2024-01-30T04:22:44;4.60;99.90
16578;DHT22;8401;52.528;13.340;2024-01-30T04:25:10;4.50;99.90
16578;DHT22;8401;52.528;13.340;2024-01-30T04:27:36;4.60;99.90
16578;DHT22;8401;52.528;13.340;2024-01-30T04:30:02;4.40;99.90
16578;DHT22;8401;52.528;13.340;2024-01-30T04:32:28;4.40;99.90
16578;DHT22;8401;52.528;13.340;2024-01-30T04:34:53;4.50;99.90
16578;DHT22;8401;52.528;13.340;2024-01-30T04:37:19;4.30;99.90
16578;DHT22;8401;52.528;13.340;2024-01-30T04:39:44;4.30;99.90
16578;DHT22;8401;52.528;13.340;2024-01-30T04:42:10;4.30;99.90
16578;DHT22;8401;52.528;13.340;2024-01-30T04:44:36;4.40;99.90
16578;DHT22;8401;52.528;13.340;2024-01-30T04:47:01;4.60;99.90
16578;DHT22;8401;52.528;13.340;2024-01-30T04:49:27;4.40;99.90
16578;DHT22;8401;52.528;13.340;2024-01-30T04:51:54;4.40;99.90
16578;DHT22;8401;52.528;13.340;2024-01-30T04:54:20;4.40;99.90
16578;DHT22;8401;52.528;13.340;2024-01-30T04:56:45;4.40;99.90
16578;DHT22;8401;52.528;13.340;2024-01-30T04:59:12;4.30;99.90
16578;DHT22;8401;52.528;13.340;2024-01-30T05:01:37;4.40;99.90
16578;DHT22;8401;52.528;13.340;2024-01-30T05:04:03;4.30;99.90
16578;DHT22;8401;52.528;13.340;2024-01-30T05:06:29;4.30;99.90
16578;DHT22;8401;52.528;13.340;2024-01-30T05:08:55;4.40;99.90
16578;DHT22;8401;52.528;13.340;2024-01-30T05:11:21;4.50;99.90
16578;DHT22;8401;52.528;13.340;2024-01-30T05:13:46;4.50;99.90
16578;DHT22;8401;52.528;13.340;2024-01-30T05:16:13;4.50;99.90
16578;DHT22;8401;52.528;13.340;2024-01-30T05:18:39;4.60;99.90
16578;DHT22;8401;52.528;13.340;2024-01-30T05:21:05;4.60;99.90
16578;DHT22;8401;52.528;13.340;2024-01-30T05:23:31;4.60;99.90
16578;DHT22;8401;52.528;13.340;2024-01-30T05:25:56;4.60;99.90
16578;DHT22;8401;52.528;13.340;2024-01-30T05:28:22;4.60;99.90
16578;DHT22;8401;52.528;13.340;2024-01-30T05:30:48;4.50;99.90
16578;DHT22;8401;52.528;13.340;2024-01-30T05:33:13;4.30;99.90
16578;DHT22;8401;52.528;13.340;2024-01-30T05:35:39;4.30;99.90
16578;DHT22;8401;52.528;13.340;2024-01-30T05:38:05;4.40;99.90
16578;DHT22;8401;52.528;13.340;2024-01-30T05:40:30;4.40;99.90
16578;DHT22;8401;52.528;13.340;2024-01-30T05:42:57;4.40;99.90
16578;DHT22;8401;52.528;13.340;2024-01-30T05:45:26;4.30;99.90
16578;DHT22;8401;52.528;13.340;2024-01-30T05:47:52;4.20;99.90
16578;DHT22;8401;52.528;13.340;2024-01-30T05:50:18;4.30;99.90
16578;DHT22;8401;52.528;13.340;2024-01-30T05:52:44;4.30;99.90
16578;DHT22;8401;52.528;13.340;2024-01-30T05:55:11;4.40;99.90
16578;DHT22;8401;52.528;13.340;2024-01-30T05:57:37;4.40;99.90
16578;DHT22;8401;52.528;13.340;2024-01-30T06:00:04;4.40;99.90
16578;DHT22;8401;52.528;13.340;2024-01-30T06:02:30;4.50;99.90
16578;DHT22;8401;52.528;13.340;2024-01-30T06:04:56;4.50;99.90
16578;DHT22;8401;52.528;13.340;2024-01-30T06:07:22;4.50;99.90
16578;DHT22;8401;52.528;13.340;2024-01-30T06:09:47;4.50;99.90
16578;DHT22;8401;52.528;13.340;2024-01-30T06:12:13;4.40;99.90
16578;DHT22;8401;52.528;13.340;2024-01-30T06:14:39;4.40;99.90
16578;DHT22;8401;52.528;13.340;2024-01-30T06:17:05;4.40;99.90
16578;DHT22;8401;52.528;13.340;2024-01-30T06:19:31;4.40;99.90
16578;DHT22;8401;52.528;13.340;2024-01-30T06:21:56;4.50;99.90
16578;DHT22;8401;52.528;13.340;2024-01-30T06:24:23;4.40;99.90
16578;DHT22;8401;52.528;13.340;2024-01-30T06:26:49;4.40;99.90
16578;DHT22;8401;52.528;13.340;2024-01-30T06:29:14;4.50;99.90
16578;DHT22;8401;52.528;13.340;2024-01-30T06:31:42;4.50;99.90
16578;DHT22;8401;52.528;13.340;2024-01-30T06:34:08;4.50;99.90
16578;DHT22;8401;52.528;13.340;2024-01-30T06:36:34;4.40;99.90
16578;DHT22;8401;52.528;13.340;2024-01-30T06:39:02;4.40;99.90
16578;DHT22;8401;52.528;13.340;2024-01-30T06:41:27;4.50;99.90
16578;DHT22;8401;52.528;13.340;2024-01-30T06:43:53;4.40;99.90
16578;DHT22;8401;52.528;13.340;2024-01-30T06:46:19;4.40;99.90
16578;DHT22;8401;52.528;13.340;2024-01-30T06:48:44;4.50;99.90
16578;DHT22;8401;52.528;13.340;2024-01-30T06:51:11;4.60;99.90
16578;DHT22;8401;52.528;13.340;2024-01-30T06:53:37;4.60;99.90
16578;DHT22;8401;52.528;13.340;2024-01-30T06:56:03;4.50;99.90
16578;DHT22;8401;52.528;13.340;2024-01-30T06:58:28;4.60;99.90
16578;DHT22;8401;52.528;13.340;2024-01-30T07:00:55;4.60;99.90
16578;DHT22;8401;52.528;13.340;2024-01-30T07:03:21;4.60;99.90
16578;DHT22;8401;52.528;13.340;2024-01-30T07:05:47;4.50;99.90
16578;DHT22;8401;52.528;13.340;2024-01-30T07:08:13;4.40;99.90
16578;DHT22;8401;52.528;13.340;2024-01-30T07:10:38;4.50;99.90
16578;DHT22;8401;52.528;13.340;2024-01-30T07:13:04;4.50;99.90
16578;DHT22;8401;52.528;13.340;2024-01-30T07:15:31;4.60;99.90
16578;DHT22;8401;52.528;13.340;2024-01-30T07:17:57;4.60;99.90
16578;DHT22;8401;52.528;13.340;2024-01-30T07:20:22;4.70;99.90
16578;DHT22;8401;52.528;13.340;2024-01-30T07:22:49;4.70;99.90
16578;DHT22;8401;52.528;13.340;2024-01-30T07:25:14;4.70;99.90
16578;DHT22;8401;52.528;13.340;2024-01-30T07:27:42;4.70;99.90
16578;DHT22;8401;52.528;13.340;2024-01-30T07:30:08;4.70;99.90
16578;DHT22;8401;52.528;13.340;2024-01-30T07:32:33;4.70;99.90
16578;DHT22;8401;52.528;13.340;2024-01-30T07:34:59;4.70;99.90
16578;DHT22;8401;52.528;13.340;2024-01-30T07:37:25;4.70;99.90
16578;DHT22;8401;52.528;13.340;2024-01-30T07:39:50;4.80;99.90
16578;DHT22;8401;52.528;13.340;2024-01-30T07:42:16;4.80;99.90
16578;DHT22;8401;52.528;13.340;2024-01-30T07:44:43;4.80;99.90
16578;DHT22;8401;52.528;13.340;2024-01-30T07:47:08;4.80;99.90
16578;DHT22;8401;52.528;13.340;2024-01-30T07:49:34;4.90;99.90
16578;DHT22;8401;52.528;13.340;2024-01-30T07:52:00;5.00;99.90
16578;DHT22;8401;52.528;13.340;2024-01-30T07:54:25;5.00;99.90
16578;DHT22;8401;52.528;13.340;2024-01-30T07:56:51;5.00;99.90
16578;DHT22;8401;52.528;13.340;2024-01-30T07:59:17;5.00;99.90
16578;DHT22;8401;52.528;13.340;2024-01-30T08:01:44;5.00;99.90
16578;DHT22;8401;52.528;13.340;2024-01-30T08:04:09;5.10;99.90
16578;DHT22;8401;52.528;13.340;2024-01-30T08:06:35;5.10;99.90
16578;DHT22;8401;52.528;13.340;2024-01-30T08:09:00;5.10;99.90
16578;DHT22;8401;52.528;13.340;2024-01-30T08:11:26;5.10;99.90
16578;DHT22;8401;52.528;13.340;2024-01-30T08:13:54;5.20;99.90
16578;DHT22;8401;52.528;13.340;2024-01-30T08:16:19;5.10;99.90
16578;DHT22;8401;52.528;13.340;2024-01-30T08:18:45;5.20;99.90
16578;DHT22;8401;52.528;13.340;2024-01-30T08:21:10;5.30;99.90
16578;DHT22;8401;52.528;13.340;2024-01-30T08:23:38;5.30;99.90
16578;DHT22;8401;52.528;13.340;2024-01-30T08:26:05;5.30;99.90
16578;DHT22;8401;52.528;13.340;2024-01-30T08:28:31;5.40;99.90
16578;DHT22;8401;52.528;13.340;2024-01-30T08:30:56;5.30;99.90
16578;DHT22;8401;52.528;13.340;2024-01-30T08:33:22;5.30;99.90
16578;DHT22;8401;52.528;13.340;2024-01-30T08:35:48;5.30;99.90
16578;DHT22;8401;52.528;13.340;2024-01-30T08:38:14;5.60;99.90
16578;DHT22;8401;52.528;13.340;2024-01-30T08:40:39;5.80;99.90
16578;DHT22;8401;52.528;13.340;2024-01-30T08:43:05;5.90;99.90
16578;DHT22;8401;52.528;13.340;2024-01-30T08:45:30;6.00;99.90
16578;DHT22;8401;52.528;13.340;2024-01-30T08:47:56;5.90;99.90
16578;DHT22;8401;52.528;13.340;2024-01-30T08:50:22;5.80;99.90
16578;DHT22;8401;52.528;13.340;2024-01-30T08:52:48;6.00;99.90
16578;DHT22;8401;52.528;13.340;2024-01-30T08:55:13;6.00;99.90
16578;DHT22;8401;52.528;13.340;2024-01-30T08:57:39;6.20;99.90
16578;DHT22;8401;52.528;13.340;2024-01-30T09:00:05;6.40;99.90
16578;DHT22;8401;52.528;13.340;2024-01-30T09:02:34;6.50;99.90
16578;DHT22;8401;52.528;13.340;2024-01-30T09:05:00;6.60;99.90
16578;DHT22;8401;52.528;13.340;2024-01-30T09:07:25;6.40;99.90
16578;DHT22;8401;52.528;13.340;2024-01-30T09:09:51;6.70;99.90
16578;DHT22;8401;52.528;13.340;2024-01-30T09:12:16;6.70;99.90
16578;DHT22;8401;52.528;13.340;2024-01-30T09:14:42;6.90;99.90
16578;DHT22;8401;52.528;13.340;2024-01-30T09:17:08;6.90;99.90
16578;DHT22;8401;52.528;13.340;2024-01-30T09:19:34;7.00;99.90
16578;DHT22;8401;52.528;13.340;2024-01-30T09:21:59;7.00;99.90
16578;DHT22;8401;52.528;13.340;2024-01-30T09:24:26;7.20;99.90
16578;DHT22;8401;52.528;13.340;2024-01-30T09:26:52;7.20;99.90
16578;DHT22;8401;52.528;13.340;2024-01-30T09:29:18;6.90;99.90
16578;DHT22;8401;52.528;13.340;2024-01-30T09:31:47;7.10;99.90
16578;DHT22;8401;52.528;13.340;2024-01-30T09:34:13;7.30;99.90
16578;DHT22;8401;52.528;13.340;2024-01-30T09:36:39;7.30;99.90
16578;DHT22;8401;52.528;13.340;2024-01-30T09:39:05;7.40;99.90
16578;DHT22;8401;52.528;13.340;2024-01-30T09:41:33;7.40;99.90
16578;DHT22;8401;52.528;13.340;2024-01-30T09:44:00;7.50;99.90
16578;DHT22;8401;52.528;13.340;2024-01-30T09:46:28;7.60;99.90
16578;DHT22;8401;52.528;13.340;2024-01-30T09:48:55;7.60;99.90
16578;DHT22;8401;52.528;13.340;2024-01-30T09:51:23;7.70;99.90
16578;DHT22;8401;52.528;13.340;2024-01-30T09:53:49;7.70;99.90
16578;DHT22;8401;52.528;13.340;2024-01-30T09:56:15;7.80;99.90
16578;DHT22;8401;52.528;13.340;2024-01-30T09:58:42;7.90;99.90
16578;DHT22;8401;52.528;13.340;2024-01-30T10:01:07;7.80;99.90
16578;DHT22;8401;52.528;13.340;2024-01-30T10:03:34;8.00;99.90
16578;DHT22;8401;52.528;13.340;2024-01-30T10:06:01;8.00;99.90
16578;DHT22;8401;52.528;13.340;2024-01-30T10:08:27;8.20;99.90
16578;DHT22;8401;52.528;13.340;2024-01-30T10:10:53;8.30;99.90
16578;DHT22;8401;52.528;13.340;2024-01-30T10:13:19;8.30;99.90
16578;DHT22;8401;52.528;13.340;2024-01-30T10:15:45;8.20;99.90
16578;DHT22;8401;52.528;13.340;2024-01-30T10:18:13;8.20;99.90
16578;DHT22;8401;52.528;13.340;2024-01-30T10:20:38;8.30;99.90
16578;DHT22;8401;52.528;13.340;2024-01-30T10:23:04;8.40;99.90
16578;DHT22;8401;52.528;13.340;2024-01-30T10:25:31;8.30;99.90
16578;DHT22;8401;52.528;13.340;2024-01-30T10:27:58;8.10;99.90
16578;DHT22;8401;52.528;13.340;2024-01-30T10:30:24;8.30;99.90
16578;DHT22;8401;52.528;13.340;2024-01-30T10:32:50;8.50;99.90
16578;DHT22;8401;52.528;13.340;2024-01-30T10:35:16;8.50;99.90
16578;DHT22;8401;52.528;13.340;2024-01-30T10:37:47;8.50;99.90
16578;DHT22;8401;52.528;13.340;2024-01-30T10:40:14;8.50;99.90
16578;DHT22;8401;52.528;13.340;2024-01-30T10:42:43;8.40;99.90
16578;DHT22;8401;52.528;13.340;2024-01-30T10:45:11;8.40;99.90
16578;DHT22;8401;52.528;13.340;2024-01-30T10:47:44;8.60;99.90
16578;DHT22;8401;52.528;13.340;2024-01-30T10:50:09;8.70;99.90
16578;DHT22;8401;52.528;13.340;2024-01-30T10:52:36;8.40;99.90
16578;DHT22;8401;52.528;13.340;2024-01-30T10:55:04;8.70;99.90
16578;DHT22;8401;52.528;13.340;2024-01-30T10:57:34;8.80;99.90
16578;DHT22;8401;52.528;13.340;2024-01-30T11:00:03;8.80;99.90
16578;DHT22;8401;52.528;13.340;2024-01-30T11:02:43;8.80;99.90
16578;DHT22;8401;52.528;13.340;2024-01-30T11:05:09;8.80;99.90
16578;DHT22;8401;52.528;13.340;2024-01-30T11:07:35;8.70;99.90
16578;DHT22;8401;52.528;13.340;2024-01-30T11:10:03;8.70;99.90
16578;DHT22;8401;52.528;13.340;2024-01-30T11:12:30;8.70;99.90
16578;DHT22;8401;52.528;13.340;2024-01-30T11:15:03;8.50;99.90
16578;DHT22;8401;52.528;13.340;2024-01-30T11:17:49;8.60;99.90
16578;DHT22;8401;52.528;13.340;2024-01-30T11:20:29;8.60;99.90
16578;DHT22;8401;52.528;13.340;2024-01-30T11:22:57;8.90;99.90
16578;DHT22;8401;52.528;13.340;2024-01-30T11:25:23;8.90;99.90
16578;DHT22;8401;52.528;13.340;2024-01-30T11:27:51;8.80;99.90
16578;DHT22;8401;52.528;13.340;2024-01-30T11:30:24;9.00;99.90
16578;DHT22;8401;52.528;13.340;2024-01-30T11:33:07;9.00;99.90
16578;DHT22;8401;52.528;13.340;2024-01-30T11:38:04;9.10;99.90
16578;DHT22;8401;52.528;13.340;2024-01-30T11:40:31;9.10;99.90
16578;DHT22;8401;52.528;13.340;2024-01-30T11:42:59;9.20;99.90
16578;DHT22;8401;52.528;13.340;2024-01-30T11:45:26;8.80;99.90
16578;DHT22;8401;52.528;13.340;2024-01-30T11:47:51;8.90;99.90
16578;DHT22;8401;52.528;13.340;2024-01-30T11:50:17;8.90;99.90
16578;DHT22;8401;52.528;13.340;2024-01-30T11:52:43;8.90;99.90
16578;DHT22;8401;52.528;13.340;2024-01-30T11:55:09;8.80;99.90
16578;DHT22;8401;52.528;13.340;2024-01-30T11:57:35;8.90;99.90
16578;DHT22;8401;52.528;13.340;2024-01-30T12:00:03;8.80;99.90
16578;DHT22;8401;52.528;13.340;2024-01-30T12:02:33;9.10;99.90
16578;DHT22;8401;52.528;13.340;2024-01-30T12:05:04;9.30;99.90
16578;DHT22;8401;52.528;13.340;2024-01-30T12:07:30;9.40;99.90
16578;DHT22;8401;52.528;13.340;2024-01-30T12:09:56;9.40;99.90
16578;DHT22;8401;52.528;13.340;2024-01-30T12:12:24;9.20;99.90
16578;DHT22;8401;52.528;13.340;2024-01-30T12:14:50;9.30;99.90
16578;DHT22;8401;52.528;13.340;2024-01-30T12:17:32;9.00;99.90
16578;DHT22;8401;52.528;13.340;2024-01-30T12:22:46;8.80;99.90
16578;DHT22;8401;52.528;13.340;2024-01-30T12:25:20;9.00;99.90
16578;DHT22;8401;52.528;13.340;2024-01-30T12:27:47;9.30;99.90
16578;DHT22;8401;52.528;13.340;2024-01-30T12:30:17;9.40;99.90
16578;DHT22;8401;52.528;13.340;2024-01-30T12:32:47;9.30;99.90
16578;DHT22;8401;52.528;13.340;2024-01-30T12:35:15;9.30;99.90
16578;DHT22;8401;52.528;13.340;2024-01-30T12:37:43;9.20;99.90
16578;DHT22;8401;52.528;13.340;2024-01-30T12:40:09;9.10;99.90
16578;DHT22;8401;52.528;13.340;2024-01-30T12:42:35;9.20;99.90
16578;DHT22;8401;52.528;13.340;2024-01-30T12:45:04;9.10;99.90
16578;DHT22;8401;52.528;13.340;2024-01-30T12:47:30;9.10;99.90
16578;DHT22;8401;52.528;13.340;2024-01-30T12:49:56;9.10;99.90
16578;DHT22;8401;52.528;13.340;2024-01-30T12:52:22;9.10;99.90
16578;DHT22;8401;52.528;13.340;2024-01-30T12:54:49;9.10;99.90
16578;DHT22;8401;52.528;13.340;2024-01-30T12:57:15;9.10;99.90
16578;DHT22;8401;52.528;13.340;2024-01-30T12:59:41;9.20;99.90
16578;DHT22;8401;52.528;13.340;2024-01-30T13:02:07;9.20;99.90
16578;DHT22;8401;52.528;13.340;2024-01-30T13:04:34;9.20;99.90
16578;DHT22;8401;52.528;13.340;2024-01-30T13:07:00;9.30;99.90
16578;DHT22;8401;52.528;13.340;2024-01-30T13:09:30;9.20;99.90
16578;DHT22;8401;52.528;13.340;2024-01-30T13:11:56;9.40;99.90
16578;DHT22;8401;52.528;13.340;2024-01-30T13:14:22;9.40;99.90
16578;DHT22;8401;52.528;13.340;2024-01-30T13:16:48;9.40;99.90
16578;DHT22;8401;52.528;13.340;2024-01-30T13:19:13;9.30;99.90
16578;DHT22;8401;52.528;13.340;2024-01-30T13:21:39;9.30;99.90
16578;DHT22;8401;52.528;13.340;2024-01-30T13:24:05;9.30;99.90
16578;DHT22;8401;52.528;13.340;2024-01-30T13:26:34;9.50;99.90
16578;DHT22;8401;52.528;13.340;2024-01-30T13:29:00;9.40;99.90
16578;DHT22;8401;52.528;13.340;2024-01-30T13:31:25;9.20;99.90
16578;DHT22;8401;52.528;13.340;2024-01-30T13:33:53;9.30;99.90
16578;DHT22;8401;52.528;13.340;2024-01-30T13:36:18;9.40;99.90
16578;DHT22;8401;52.528;13.340;2024-01-30T13:38:44;9.20;99.90
16578;DHT22;8401;52.528;13.340;2024-01-30T13:41:10;9.30;99.90
16578;DHT22;8401;52.528;13.340;2024-01-30T13:43:35;9.40;99.90
16578;DHT22;8401;52.528;13.340;2024-01-30T13:46:01;9.50;99.90
16578;DHT22;8401;52.528;13.340;2024-01-30T13:48:27;9.50;99.90
16578;DHT22;8401;52.528;13.340;2024-01-30T13:50:53;9.50;99.90
16578;DHT22;8401;52.528;13.340;2024-01-30T13:53:19;9.40;99.90
16578;DHT22;8401;52.528;13.340;2024-01-30T13:55:44;9.30;99.90
16578;DHT22;8401;52.528;13.340;2024-01-30T13:58:10;9.20;99.90
16578;DHT22;8401;52.528;13.340;2024-01-30T14:00:36;9.10;99.90
16578;DHT22;8401;52.528;13.340;2024-01-30T14:03:01;9.30;99.90
16578;DHT22;8401;52.528;13.340;2024-01-30T14:05:28;9.40;99.90
16578;DHT22;8401;52.528;13.340;2024-01-30T14:07:54;9.50;99.90
16578;DHT22;8401;52.528;13.340;2024-01-30T14:10:20;9.60;99.90
16578;DHT22;8401;52.528;13.340;2024-01-30T14:12:46;9.60;99.90
16578;DHT22;8401;52.528;13.340;2024-01-30T14:15:13;9.50;99.90
16578;DHT22;8401;52.528;13.340;2024-01-30T14:17:48;9.40;99.90
16578;DHT22;8401;52.528;13.340;2024-01-30T14:20:15;9.40;99.90
16578;DHT22;8401;52.528;13.340;2024-01-30T14:22:44;9.40;99.90
16578;DHT22;8401;52.528;13.340;2024-01-30T14:25:09;9.40;99.90
16578;DHT22;8401;52.528;13.340;2024-01-30T14:27:36;9.40;99.90
16578;DHT22;8401;52.528;13.340;2024-01-30T14:30:02;9.50;99.90
16578;DHT22;8401;52.528;13.340;2024-01-30T14:32:28;9.50;99.90
16578;DHT22;8401;52.528;13.340;2024-01-30T14:34:54;9.50;99.90
16578;DHT22;8401;52.528;13.340;2024-01-30T14:37:23;9.50;99.90
16578;DHT22;8401;52.528;13.340;2024-01-30T14:39:49;9.50;99.90
16578;DHT22;8401;52.528;13.340;2024-01-30T14:42:15;9.50;99.90
16578;DHT22;8401;52.528;13.340;2024-01-30T14:44:41;9.40;99.90
16578;DHT22;8401;52.528;13.340;2024-01-30T14:47:07;9.50;99.90
16578;DHT22;8401;52.528;13.340;2024-01-30T14:49:33;9.20;99.90
16578;DHT22;8401;52.528;13.340;2024-01-30T14:51:59;9.30;99.90
16578;DHT22;8401;52.528;13.340;2024-01-30T14:54:26;9.30;99.90
16578;DHT22;8401;52.528;13.340;2024-01-30T14:56:52;9.40;99.90
16578;DHT22;8401;52.528;13.340;2024-01-30T14:59:17;9.40;99.90
16578;DHT22;8401;52.528;13.340;2024-01-30T15:01:43;9.30;99.90
16578;DHT22;8401;52.528;13.340;2024-01-30T15:04:10;9.30;99.90
16578;DHT22;8401;52.528;13.340;2024-01-30T15:06:36;9.30;99.90
16578;DHT22;8401;52.528;13.340;2024-01-30T15:09:01;9.40;99.90
16578;DHT22;8401;52.528;13.340;2024-01-30T15:11:28;9.30;99.90
16578;DHT22;8401;52.528;13.340;2024-01-30T15:13:53;9.30;99.90
16578;DHT22;8401;52.528;13.340;2024-01-30T15:16:19;9.30;99.90
16578;DHT22;8401;52.528;13.340;2024-01-30T15:18:44;9.30;99.90
16578;DHT22;8401;52.528;13.340;2024-01-30T15:21:10;9.30;99.90
16578;DHT22;8401;52.528;13.340;2024-01-30T15:23:36;9.30;99.90
16578;DHT22;8401;52.528;13.340;2024-01-30T15:26:01;9.30;99.90
16578;DHT22;8401;52.528;13.340;2024-01-30T15:28:37;9.30;99.90
16578;DHT22;8401;52.528;13.340;2024-01-30T15:31:04;9.20;99.90
16578;DHT22;8401;52.528;13.340;2024-01-30T15:33:30;9.10;99.90
16578;DHT22;8401;52.528;13.340;2024-01-30T15:35:57;9.10;99.90
16578;DHT22;8401;52.528;13.340;2024-01-30T15:38:23;9.00;99.90
16578;DHT22;8401;52.528;13.340;2024-01-30T15:40:48;9.00;99.90
16578;DHT22;8401;52.528;13.340;2024-01-30T15:43:14;8.90;99.90
16578;DHT22;8401;52.528;13.340;2024-01-30T15:45:39;8.90;99.90